LIG weather

Public forecast

Using degrees Celsius for public forecast. Weather courtesy of forecast.io.

Current aviation weather report (METAR) for Limoges Airport

Retrieved 2020/08/11 13:30 UTC (0 seconds ago):

LFBL 111330Z AUTO 07006KT 010V110 CAVOK 31/17 Q1015 TEMPO VRB20G30KT 4000 TSRA BKN080CB

Aviation forecast (TAF) for Limoges Airport

Retrieved 2020/08/11 12:21 UTC (1 hour ago):

TAF LFBL 111100Z 1112/1212 08006KT 9999 FEW090TCU PROB40 1115/1120 VRB20G30KT 4000 TSRA BKN080CB PROB40 1204/1206 VRB20G30KT 4000 TSRA BKN080CB BECMG 1207/1209 SCT080CB